createdAt,value
2018-09-25T00:00:46.999Z,1.97
2018-09-25T00:03:21.993Z,1.87
2018-09-25T00:05:56.964Z,1.90
2018-09-25T00:08:32.001Z,2.20
2018-09-25T00:11:07.155Z,2.27
2018-09-25T00:13:43.404Z,2.20
2018-09-25T00:16:18.548Z,2.23
2018-09-25T00:18:53.572Z,2.33
2018-09-25T00:21:28.470Z,2.50
2018-09-25T00:24:03.209Z,2.40
2018-09-25T00:26:38.058Z,2.70
2018-09-25T00:29:14.022Z,2.60
2018-09-25T00:31:48.874Z,2.40
2018-09-25T00:34:24.181Z,2.43
2018-09-25T00:36:59.340Z,2.70
2018-09-25T00:39:35.225Z,2.73
2018-09-25T00:42:10.432Z,2.90
2018-09-25T00:44:45.492Z,2.73
2018-09-25T00:47:20.316Z,3.07
2018-09-25T00:49:56.263Z,2.70
2018-09-25T00:52:31.159Z,3.00
2018-09-25T00:55:06.231Z,2.80
2018-09-25T00:57:41.287Z,2.50
2018-09-25T01:00:16.267Z,2.10
2018-09-25T01:02:51.137Z,2.60
2018-09-25T01:05:26.078Z,2.20
2018-09-25T01:08:01.162Z,2.73
2018-09-25T01:10:36.402Z,3.10
2018-09-25T01:13:11.398Z,2.20
2018-09-25T01:15:46.621Z,2.20
2018-09-25T01:18:21.812Z,2.57
2018-09-25T01:20:56.710Z,2.50
2018-09-25T01:23:31.507Z,2.50
2018-09-25T01:26:08.285Z,2.17
2018-09-25T01:28:43.310Z,2.60
2018-09-25T01:31:18.048Z,2.00
2018-09-25T01:33:53.044Z,2.60
2018-09-25T01:36:27.925Z,2.57
2018-09-25T01:39:03.174Z,2.60
2018-09-25T01:41:37.965Z,2.77
2018-09-25T01:44:12.930Z,2.63
2018-09-25T01:46:48.772Z,2.67
2018-09-25T01:49:23.710Z,2.73
2018-09-25T01:51:59.885Z,2.80
2018-09-25T01:54:34.979Z,2.47
2018-09-25T01:57:09.908Z,2.60
2018-09-25T01:59:44.825Z,2.60
2018-09-25T02:02:19.963Z,2.50
2018-09-25T02:04:55.071Z,2.50
2018-09-25T02:07:33.346Z,2.50
2018-09-25T02:10:08.354Z,2.40
2018-09-25T02:12:44.268Z,2.77
2018-09-25T02:15:19.391Z,2.40
2018-09-25T02:17:54.744Z,2.90
2018-09-25T02:20:29.669Z,2.90
2018-09-25T02:23:04.617Z,3.00
2018-09-25T02:25:39.459Z,2.93
2018-09-25T02:28:14.795Z,2.83
2018-09-25T02:30:49.429Z,2.80
2018-09-25T02:33:25.477Z,2.63
2018-09-25T02:36:00.704Z,3.00
2018-09-25T02:38:35.521Z,2.83
2018-09-25T02:41:10.540Z,3.00
2018-09-25T02:43:45.621Z,2.70
2018-09-25T02:46:21.202Z,3.37
2018-09-25T02:48:57.348Z,3.13
2018-09-25T02:51:32.224Z,3.30
2018-09-25T02:54:07.790Z,2.90
2018-09-25T02:56:42.849Z,2.73
2018-09-25T02:59:19.029Z,3.17
2018-09-25T03:01:54.030Z,3.17
2018-09-25T03:04:29.090Z,2.80
2018-09-25T03:07:04.224Z,3.67
2018-09-25T03:09:39.068Z,3.23
2018-09-25T03:12:14.194Z,3.40
2018-09-25T03:14:49.100Z,2.83
2018-09-25T03:17:23.788Z,3.30
2018-09-25T03:19:59.299Z,2.80
2018-09-25T03:31:22.764Z,2.80
2018-09-25T03:33:57.979Z,3.13
2018-09-25T03:36:33.164Z,2.93
2018-09-25T03:39:08.295Z,3.10
2018-09-25T03:41:43.602Z,2.80
2018-09-25T03:44:18.644Z,3.27
2018-09-25T03:46:53.867Z,3.50
2018-09-25T03:49:29.526Z,2.73
2018-09-25T03:52:05.248Z,2.63
2018-09-25T03:54:40.073Z,3.10
2018-09-25T03:57:15.157Z,3.40
2018-09-25T03:59:50.662Z,3.07
2018-09-25T04:02:25.589Z,2.90
2018-09-25T04:05:00.755Z,2.47
2018-09-25T04:07:36.401Z,2.67
2018-09-25T04:10:11.788Z,3.03
2018-09-25T04:12:46.686Z,2.93
2018-09-25T04:15:22.707Z,2.57
2018-09-25T04:17:58.305Z,2.63
2018-09-25T04:20:33.225Z,3.03
2018-09-25T04:23:09.353Z,3.13
2018-09-25T04:25:44.373Z,2.97
2018-09-25T04:28:19.396Z,2.90
2018-09-25T04:30:54.496Z,2.90
2018-09-25T04:33:29.571Z,3.10
2018-09-25T04:36:04.557Z,2.97
2018-09-25T04:38:41.123Z,3.40
2018-09-25T04:41:16.406Z,3.43
2018-09-25T04:43:51.317Z,3.50
2018-09-25T04:46:26.833Z,3.67
2018-09-25T04:49:01.735Z,3.27
2018-09-25T04:51:36.737Z,3.33
2018-09-25T04:54:12.691Z,3.60
2018-09-25T04:56:47.702Z,3.87
2018-09-25T04:59:22.865Z,3.13
2018-09-25T05:01:57.652Z,3.60
2018-09-25T05:04:32.599Z,3.47
2018-09-25T05:07:07.851Z,3.93
2018-09-25T05:09:43.073Z,3.93
2018-09-25T05:12:18.259Z,3.70
2018-09-25T05:14:53.396Z,3.40
2018-09-25T05:17:28.451Z,4.73
2018-09-25T05:20:03.520Z,3.70
2018-09-25T05:22:38.589Z,4.10
2018-09-25T05:25:13.938Z,3.30
2018-09-25T05:27:49.541Z,3.60
2018-09-25T05:30:24.535Z,3.73
2018-09-25T05:32:59.851Z,3.87
2018-09-25T05:35:35.005Z,4.20
2018-09-25T05:38:09.967Z,3.87
2018-09-25T05:40:45.167Z,3.47
2018-09-25T05:43:21.161Z,4.60
2018-09-25T05:45:56.092Z,4.67
2018-09-25T05:48:31.158Z,4.67
2018-09-25T05:51:06.956Z,3.97
2018-09-25T05:53:41.891Z,4.37
2018-09-25T05:56:17.606Z,4.40
2018-09-25T05:58:52.371Z,4.93
2018-09-25T06:01:27.448Z,4.33
2018-09-25T06:04:02.413Z,4.10
2018-09-25T06:06:37.343Z,4.03
2018-09-25T06:09:14.215Z,3.90
2018-09-25T06:11:49.363Z,4.00
2018-09-25T06:14:25.351Z,4.73
2018-09-25T06:17:01.061Z,4.97
2018-09-25T06:19:35.876Z,3.60
2018-09-25T06:22:10.905Z,3.23
2018-09-25T06:24:45.863Z,4.13
2018-09-25T06:27:20.895Z,3.30
2018-09-25T06:29:56.181Z,3.47
2018-09-25T06:32:32.077Z,3.40
2018-09-25T06:35:07.058Z,3.83
2018-09-25T06:37:42.078Z,3.87
2018-09-25T06:40:17.775Z,3.60
2018-09-25T06:42:53.509Z,4.00
2018-09-25T06:45:31.631Z,4.03
2018-09-25T06:48:06.877Z,4.60
2018-09-25T06:50:42.209Z,4.37
2018-09-25T06:53:17.816Z,4.50
2018-09-25T06:55:53.101Z,4.30
2018-09-25T06:58:28.221Z,4.63
2018-09-25T07:01:04.518Z,5.20
2018-09-25T07:03:39.471Z,4.63
2018-09-25T07:06:15.509Z,4.40
2018-09-25T07:11:30.754Z,4.17
2018-09-25T07:14:05.834Z,4.30
2018-09-25T07:16:40.766Z,3.80
2018-09-25T07:19:15.859Z,4.77
2018-09-25T07:21:50.924Z,4.27
2018-09-25T07:24:25.949Z,4.30
2018-09-25T07:27:01.258Z,3.90
2018-09-25T07:29:36.215Z,3.93
2018-09-25T07:32:11.284Z,4.10
2018-09-25T07:34:49.365Z,2.80
2018-09-25T07:37:24.141Z,2.80
2018-09-25T07:39:59.428Z,3.00
2018-09-25T07:42:34.398Z,3.60
2018-09-25T07:45:09.422Z,3.77
2018-09-25T07:47:44.352Z,4.13
2018-09-25T07:50:19.409Z,4.47
2018-09-25T07:52:54.518Z,4.80
2018-09-25T07:55:30.437Z,5.00
2018-09-25T07:58:06.101Z,4.77
2018-09-25T08:00:40.812Z,6.13
2018-09-25T08:03:15.915Z,6.07
2018-09-25T08:05:51.032Z,5.53
2018-09-25T08:08:25.989Z,6.20
2018-09-25T08:11:01.023Z,5.60
2018-09-25T08:13:35.910Z,6.70
2018-09-25T08:16:10.826Z,4.47
2018-09-25T08:18:46.111Z,6.73
2018-09-25T08:21:20.934Z,9.00
2018-09-25T08:23:55.856Z,8.90
2018-09-25T08:26:30.599Z,5.80
2018-09-25T08:29:06.460Z,6.03
2018-09-25T08:31:41.592Z,3.80
2018-09-25T08:34:16.622Z,5.20
2018-09-25T08:36:51.486Z,4.13
2018-09-25T08:39:27.057Z,3.93
2018-09-25T08:42:02.857Z,3.80
2018-09-25T08:44:37.810Z,3.50
2018-09-25T08:47:12.962Z,3.80
2018-09-25T08:49:48.054Z,3.23
2018-09-25T08:52:22.833Z,3.47
2018-09-25T08:54:58.983Z,3.83
2018-09-25T08:57:33.979Z,5.70
2018-09-25T09:00:09.796Z,6.70
2018-09-25T09:02:44.931Z,4.67
2018-09-25T09:05:20.704Z,3.53
2018-09-25T09:07:55.448Z,3.43
2018-09-25T09:10:33.506Z,3.10
2018-09-25T09:13:08.387Z,3.77
2018-09-25T09:15:43.542Z,3.03
2018-09-25T09:18:18.428Z,3.27
2018-09-25T09:20:53.208Z,3.53
2018-09-25T09:23:28.141Z,3.67
2018-09-25T09:26:03.118Z,4.33
2018-09-25T09:28:38.026Z,4.23
2018-09-25T09:31:13.080Z,4.50
2018-09-25T09:33:47.868Z,4.00
2018-09-25T09:36:23.760Z,4.57
2018-09-25T09:38:58.622Z,3.97
2018-09-25T09:41:33.475Z,4.80
2018-09-25T09:44:08.403Z,4.10
2018-09-25T09:46:43.708Z,5.10
2018-09-25T09:49:19.030Z,4.07
2018-09-25T09:51:53.878Z,4.30
2018-09-25T09:54:28.581Z,3.97
2018-09-25T09:57:05.008Z,3.97
2018-09-25T09:59:39.905Z,4.10
2018-09-25T10:02:14.944Z,4.20
2018-09-25T10:04:49.655Z,4.80
2018-09-25T10:07:25.025Z,4.43
2018-09-25T10:10:00.116Z,4.60
2018-09-25T10:12:36.163Z,4.87
2018-09-25T10:15:11.060Z,4.67
2018-09-25T10:17:45.974Z,4.70
2018-09-25T10:20:21.641Z,4.50
2018-09-25T10:22:56.560Z,4.60
2018-09-25T10:25:31.520Z,4.77
2018-09-25T10:28:06.286Z,4.63
2018-09-25T10:30:41.049Z,4.50
2018-09-25T10:33:15.964Z,4.43
2018-09-25T10:35:50.671Z,3.53
2018-09-25T10:38:25.603Z,4.00
2018-09-25T10:41:01.126Z,3.70
2018-09-25T10:43:36.229Z,3.47
2018-09-25T10:46:11.604Z,3.60
2018-09-25T10:48:47.332Z,3.60
2018-09-25T10:51:22.506Z,3.30
2018-09-25T10:53:58.655Z,3.53
2018-09-25T10:56:37.156Z,3.30
2018-09-25T10:59:13.074Z,4.33
2018-09-25T11:01:47.799Z,3.73
2018-09-25T11:04:22.974Z,4.20
2018-09-25T11:06:57.658Z,4.50
2018-09-25T11:09:32.675Z,4.47
2018-09-25T11:12:07.791Z,4.87
2018-09-25T11:14:42.619Z,5.60
2018-09-25T11:17:17.416Z,4.70
2018-09-25T11:19:52.456Z,5.60
2018-09-25T11:22:27.257Z,4.70
2018-09-25T11:25:02.657Z,4.70
2018-09-25T11:27:37.841Z,4.50
2018-09-25T11:30:13.088Z,4.67
2018-09-25T11:32:48.163Z,4.10
2018-09-25T11:35:23.168Z,4.10
2018-09-25T11:37:58.042Z,3.97
2018-09-25T11:40:32.941Z,4.33
2018-09-25T11:43:07.947Z,4.53
2018-09-25T11:45:42.965Z,5.27
2018-09-25T11:48:18.085Z,4.77
2018-09-25T11:50:53.319Z,5.00
2018-09-25T11:53:28.205Z,5.53
2018-09-25T11:56:03.461Z,5.20
2018-09-25T11:58:38.461Z,6.03
2018-09-25T12:01:13.371Z,5.37
2018-09-25T12:03:49.413Z,6.00
2018-09-25T12:06:24.665Z,4.70
2018-09-25T12:08:59.813Z,4.43
2018-09-25T12:11:35.301Z,3.90
2018-09-25T12:14:10.121Z,4.23
2018-09-25T12:16:45.308Z,3.97
2018-09-25T12:19:20.100Z,3.70
2018-09-25T12:21:55.045Z,4.10
2018-09-25T12:24:30.742Z,4.10
2018-09-25T12:27:05.794Z,4.03
2018-09-25T12:29:40.724Z,3.60
2018-09-25T12:32:16.383Z,3.40
2018-09-25T12:34:51.289Z,3.70
2018-09-25T12:37:27.028Z,3.53
2018-09-25T12:40:02.720Z,3.13
2018-09-25T12:42:37.817Z,3.07
2018-09-25T12:45:13.963Z,3.53
2018-09-25T12:47:48.934Z,3.10
2018-09-25T12:50:23.979Z,3.30
2018-09-25T12:52:58.923Z,3.30
2018-09-25T12:55:33.785Z,3.20
2018-09-25T13:01:11.451Z,3.20
2018-09-25T13:03:46.488Z,2.90
2018-09-25T13:06:21.502Z,3.20
2018-09-25T13:08:56.440Z,2.67
2018-09-25T13:11:32.149Z,2.87
2018-09-25T13:14:08.021Z,3.27
2018-09-25T13:16:43.113Z,3.70
2018-09-25T13:19:21.720Z,3.40
2018-09-25T13:21:56.757Z,3.83
2018-09-25T13:24:32.657Z,3.60
2018-09-25T13:27:07.563Z,4.03
2018-09-25T13:29:42.685Z,4.20
2018-09-25T13:32:17.822Z,3.87
2018-09-25T13:34:52.736Z,3.87
2018-09-25T13:37:27.444Z,3.40
2018-09-25T13:40:02.267Z,3.47
2018-09-25T13:42:37.295Z,3.70
2018-09-25T13:45:12.490Z,3.00
2018-09-25T13:47:47.458Z,3.13
2018-09-25T13:50:22.424Z,3.00
2018-09-25T13:52:57.548Z,3.30
2018-09-25T13:55:32.555Z,2.90
2018-09-25T13:58:08.798Z,2.93
2018-09-25T14:00:45.282Z,2.80
2018-09-25T14:03:20.681Z,3.10
2018-09-25T14:05:55.711Z,2.63
2018-09-25T14:08:30.743Z,2.53
2018-09-25T14:11:05.863Z,2.80
2018-09-25T14:13:40.661Z,2.50
2018-09-25T14:16:16.578Z,2.83
2018-09-25T14:18:51.359Z,2.57
2018-09-25T14:21:26.622Z,2.67
2018-09-25T14:24:02.185Z,2.53
2018-09-25T14:26:37.233Z,2.67
2018-09-25T14:29:13.183Z,2.50
2018-09-25T14:31:48.213Z,2.97
2018-09-25T14:34:25.144Z,2.50
2018-09-25T14:37:00.254Z,2.60
2018-09-25T14:39:36.482Z,2.93
2018-09-25T14:42:12.786Z,2.60
2018-09-25T14:44:49.175Z,2.70
2018-09-25T14:47:24.210Z,2.70
2018-09-25T14:49:59.151Z,3.10
2018-09-25T14:52:34.052Z,2.90
2018-09-25T14:55:09.131Z,3.17
2018-09-25T14:57:44.150Z,2.77
2018-09-25T15:00:19.772Z,2.80
2018-09-25T15:02:55.112Z,2.80
2018-09-25T15:05:30.220Z,3.27
2018-09-25T15:08:05.377Z,2.90
2018-09-25T15:10:40.608Z,3.00
2018-09-25T15:13:16.602Z,2.80
2018-09-25T15:15:51.653Z,3.37
2018-09-25T15:18:27.681Z,3.20
2018-09-25T15:21:04.015Z,3.63
2018-09-25T15:23:39.141Z,3.03
2018-09-25T15:26:14.758Z,3.40
2018-09-25T15:28:49.898Z,3.00
2018-09-25T15:31:25.854Z,3.13
2018-09-25T15:34:00.910Z,3.47
2018-09-25T15:36:36.131Z,2.90
2018-09-25T15:39:13.311Z,3.20
2018-09-25T15:41:48.461Z,2.90
2018-09-25T15:44:23.473Z,3.23
2018-09-25T15:46:58.696Z,3.03
2018-09-25T15:49:33.718Z,4.17
2018-09-25T15:52:08.729Z,3.07
2018-09-25T15:54:43.874Z,3.13
2018-09-25T15:57:19.048Z,3.70
2018-09-25T15:59:54.012Z,3.03
2018-09-25T16:02:29.043Z,3.17
2018-09-25T16:05:05.208Z,2.97
2018-09-25T16:07:40.373Z,3.10
2018-09-25T16:10:15.243Z,3.00
2018-09-25T16:12:51.309Z,3.10
2018-09-25T16:15:27.192Z,3.20
2018-09-25T16:18:02.145Z,3.00
2018-09-25T16:20:37.328Z,3.10
2018-09-25T16:23:12.884Z,3.80
2018-09-25T16:25:47.964Z,3.40
2018-09-25T16:28:22.994Z,4.00
2018-09-25T16:30:57.956Z,3.10
2018-09-25T16:33:34.030Z,3.70
2018-09-25T16:36:08.975Z,3.70
2018-09-25T16:38:44.156Z,3.63
2018-09-25T16:41:19.397Z,3.50
2018-09-25T16:43:54.846Z,3.70
2018-09-25T16:46:30.106Z,3.27
2018-09-25T16:49:06.238Z,4.13
2018-09-25T16:51:42.710Z,4.23
2018-09-25T16:54:17.869Z,4.40
2018-09-25T16:56:53.283Z,4.33
2018-09-25T16:59:28.652Z,4.20
2018-09-25T17:02:04.365Z,4.30
2018-09-25T17:04:39.476Z,4.83
2018-09-25T17:07:16.045Z,3.63
2018-09-25T17:09:52.044Z,3.40
2018-09-25T17:12:28.046Z,4.00
2018-09-25T17:15:03.356Z,3.90
2018-09-25T17:17:39.132Z,3.80
2018-09-25T17:20:14.455Z,3.40
2018-09-25T17:22:51.663Z,3.40
2018-09-25T17:25:28.761Z,3.10
2018-09-25T17:28:04.254Z,3.57
2018-09-25T17:30:39.153Z,3.30
2018-09-25T17:33:14.399Z,3.17
2018-09-25T17:35:50.179Z,3.10
2018-09-25T17:38:25.746Z,3.53
2018-09-25T17:41:01.173Z,3.03
2018-09-25T17:43:37.368Z,3.50
2018-09-25T17:46:12.686Z,3.13
2018-09-25T17:48:51.924Z,3.07
2018-09-25T17:51:29.040Z,2.70
2018-09-25T17:54:04.916Z,3.00
2018-09-25T17:56:41.018Z,3.77
2018-09-25T17:59:16.893Z,2.90
2018-09-25T18:01:52.312Z,3.33
2018-09-25T18:04:27.602Z,2.93
2018-09-25T18:07:03.808Z,2.80
2018-09-25T18:09:39.163Z,3.20
2018-09-25T18:12:14.317Z,2.73
2018-09-25T18:14:49.524Z,2.90
2018-09-25T18:17:25.188Z,3.23
2018-09-25T18:20:00.108Z,2.90
2018-09-25T18:22:35.714Z,3.20
2018-09-25T18:25:10.866Z,2.90
2018-09-25T18:27:46.600Z,2.60
2018-09-25T18:30:21.838Z,3.13
2018-09-25T18:32:57.451Z,3.00
2018-09-25T18:35:32.924Z,3.10
2018-09-25T18:38:08.982Z,2.77
2018-09-25T18:40:44.023Z,2.83
2018-09-25T18:43:23.022Z,2.67
2018-09-25T18:45:59.698Z,2.60
2018-09-25T18:48:34.825Z,2.57
2018-09-25T18:51:11.506Z,3.10
2018-09-25T18:53:49.312Z,2.97
2018-09-25T18:56:24.164Z,2.80
2018-09-25T18:58:59.334Z,2.70
2018-09-25T19:01:35.339Z,2.83
2018-09-25T19:04:17.057Z,2.97
2018-09-25T19:06:52.908Z,2.90
2018-09-25T19:09:28.169Z,2.73
2018-09-25T19:12:03.420Z,3.50
2018-09-25T19:14:38.525Z,2.60
2018-09-25T19:17:13.676Z,2.70
2018-09-25T19:19:48.886Z,3.00
2018-09-25T19:22:24.184Z,2.83
2018-09-25T19:24:59.524Z,3.00
2018-09-25T19:27:34.775Z,3.00
2018-09-25T19:30:10.354Z,2.80
2018-09-25T19:32:45.979Z,3.40
2018-09-25T19:35:21.224Z,2.73
2018-09-25T19:37:56.187Z,2.80
2018-09-25T19:40:31.002Z,2.80
2018-09-25T19:43:06.568Z,2.67
2018-09-25T19:45:42.601Z,2.80
2018-09-25T19:48:19.377Z,3.00
2018-09-25T19:50:56.077Z,3.33
2018-09-25T19:53:31.580Z,3.10
2018-09-25T19:56:06.882Z,3.00
2018-09-25T19:58:41.871Z,2.70
2018-09-25T20:01:17.034Z,2.47
2018-09-25T20:03:51.981Z,2.70
2018-09-25T20:06:27.754Z,2.80
2018-09-25T20:09:02.743Z,2.50
2018-09-25T20:11:37.603Z,2.67
2018-09-25T20:14:12.707Z,2.70
2018-09-25T20:16:47.965Z,3.07
2018-09-25T20:19:22.897Z,2.70
2018-09-25T20:21:58.250Z,4.30
2018-09-25T20:24:33.132Z,2.80
2018-09-25T20:27:08.222Z,2.93
2018-09-25T20:29:43.284Z,2.60
2018-09-25T20:32:19.725Z,2.77
2018-09-25T20:34:55.070Z,2.77
2018-09-25T20:37:30.864Z,2.80
2018-09-25T20:40:05.861Z,2.70
2018-09-25T20:42:40.765Z,2.60
2018-09-25T20:45:15.784Z,2.53
2018-09-25T20:47:51.130Z,2.90
2018-09-25T20:50:26.008Z,3.30
2018-09-25T20:53:01.140Z,2.90
2018-09-25T20:55:36.205Z,3.13
2018-09-25T20:58:11.124Z,3.13
2018-09-25T21:00:45.893Z,2.57
2018-09-25T21:03:20.844Z,2.73
2018-09-25T21:05:55.805Z,2.87
2018-09-25T21:08:30.753Z,2.50
2018-09-25T21:11:05.642Z,2.80
2018-09-25T21:13:40.894Z,2.50
2018-09-25T21:17:44.832Z,3.07
2018-09-25T21:20:20.291Z,2.70
2018-09-25T21:22:56.137Z,2.80
2018-09-25T21:25:32.053Z,2.53
2018-09-25T21:28:07.057Z,2.30
2018-09-25T21:30:42.423Z,2.40
2018-09-25T21:33:18.364Z,2.43
2018-09-25T21:35:53.311Z,2.60
2018-09-25T21:38:28.268Z,2.60
2018-09-25T21:41:04.329Z,2.70
2018-09-25T21:43:40.542Z,2.40
2018-09-25T21:46:15.763Z,2.47
2018-09-25T21:48:50.701Z,2.97
2018-09-25T21:51:26.131Z,2.77
2018-09-25T21:54:00.868Z,2.43
2018-09-25T21:56:36.193Z,2.67
2018-09-25T21:59:11.123Z,2.80
2018-09-25T22:01:47.107Z,2.50
2018-09-25T22:04:22.382Z,2.47
2018-09-25T22:06:57.573Z,2.70
2018-09-25T22:09:32.599Z,2.70
2018-09-25T22:12:07.757Z,2.83
2018-09-25T22:14:42.512Z,2.57
2018-09-25T22:17:17.857Z,2.80
2018-09-25T22:19:53.073Z,2.80
2018-09-25T22:22:28.838Z,2.90
2018-09-25T22:25:03.960Z,2.80
2018-09-25T22:27:38.977Z,3.10
2018-09-25T22:30:14.021Z,2.57
2018-09-25T22:32:49.418Z,2.80
2018-09-25T22:35:24.277Z,2.73
2018-09-25T22:37:59.410Z,2.97
2018-09-25T22:40:34.515Z,2.50
2018-09-25T22:43:10.587Z,2.80
2018-09-25T22:45:45.355Z,2.73
2018-09-25T22:48:21.037Z,2.80
2018-09-25T22:54:12.121Z,2.77
2018-09-25T22:56:48.085Z,2.77
2018-09-25T22:59:23.231Z,2.70
2018-09-25T23:01:58.166Z,2.70
2018-09-25T23:04:33.763Z,2.50
2018-09-25T23:07:09.146Z,2.87
2018-09-25T23:09:44.736Z,3.00
2018-09-25T23:12:20.065Z,3.47
2018-09-25T23:14:55.110Z,3.03
2018-09-25T23:17:31.763Z,3.27
2018-09-25T23:20:08.881Z,3.33
2018-09-25T23:22:43.852Z,3.20
2018-09-25T23:25:19.227Z,3.07
2018-09-25T23:27:55.222Z,2.80
2018-09-25T23:30:30.023Z,2.80
2018-09-25T23:33:05.078Z,3.23
2018-09-25T23:35:40.315Z,2.60
2018-09-25T23:38:15.656Z,2.80
2018-09-25T23:41:22.335Z,3.00
2018-09-25T23:43:58.045Z,2.80
2018-09-25T23:46:35.069Z,2.77
2018-09-25T23:49:25.066Z,3.20
2018-09-25T23:52:06.090Z,3.07
2018-09-25T23:54:41.316Z,2.53
2018-09-25T23:57:15.600Z,2.50
